Time;durP1;ratioP1;P1;durP2;ratioP2;P2;SDS_P1;SDS_P2;PMS_P1;PMS_P2;Temp;Humidity;BMP_temperature;BMP_pressure;BME280_temperature;BME280_humidity;BME280_pressure;Samples;Min_cycle;Max_cycle;Signal;HPM_P1;HPM_P2
2023/04/01 00:01:38;;;;;;;2.88;1.30;;;10.40;99.90;;;;;;5069743;28;20040;-73
2023/04/01 00:04:04;;;;;;;2.78;1.30;;;10.40;99.90;;;;;;5068104;28;20047;-73
2023/04/01 00:06:30;;;;;;;2.83;1.35;;;10.40;99.90;;;;;;5056558;28;20075;-73
2023/04/01 00:08:56;;;;;;;3.70;1.77;;;10.40;99.90;;;;;;5070274;28;20720;-73
2023/04/01 00:11:22;;;;;;;3.33;1.67;;;10.40;99.90;;;;;;5073082;28;20039;-73
2023/04/01 00:13:48;;;;;;;7.03;1.70;;;10.40;99.90;;;;;;5072808;28;20056;-73
2023/04/01 00:16:14;;;;;;;3.20;1.48;;;10.40;99.90;;;;;;5075170;28;20410;-73
2023/04/01 00:18:40;;;;;;;3.33;1.30;;;10.40;99.90;;;;;;5070621;28;20040;-73
2023/04/01 00:21:06;;;;;;;3.65;1.58;;;10.40;99.90;;;;;;5075828;28;20031;-73
2023/04/01 00:23:31;;;;;;;3.92;1.45;;;10.30;99.90;;;;;;5102575;27;20040;-73
2023/04/01 00:26:00;;;;;;;3.75;1.50;;;10.40;99.90;;;;;;5073183;28;20072;-73
2023/04/01 00:28:26;;;;;;;2.13;1.27;;;10.30;99.90;;;;;;5072356;28;20040;-73
2023/04/01 00:30:52;;;;;;;2.92;1.45;;;10.40;99.90;;;;;;5068865;28;20039;-73
2023/04/01 00:33:18;;;;;;;3.50;1.60;;;10.30;99.90;;;;;;5073858;28;20062;-73
2023/04/01 00:35:44;;;;;;;5.30;1.80;;;10.30;99.90;;;;;;5068483;28;20032;-73
2023/04/01 00:38:11;;;;;;;5.03;1.58;;;10.30;99.90;;;;;;5071815;28;20497;-73
2023/04/01 00:40:41;;;;;;;2.90;1.25;;;10.30;99.90;;;;;;5087174;28;20040;-73
2023/04/01 00:43:25;;;;;;;3.40;1.88;;;10.30;99.90;;;;;;5054245;28;20040;-73
2023/04/01 00:45:51;;;;;;;3.25;1.75;;;10.30;99.90;;;;;;5063265;28;20115;-73
2023/04/01 00:48:28;;;;;;;3.85;1.20;;;10.30;99.90;;;;;;5074266;28;20131;-73
2023/04/01 00:51:02;;;;;;;6.40;1.63;;;10.30;99.90;;;;;;5071109;28;20510;-71
2023/04/01 00:53:29;;;;;;;3.42;1.50;;;10.30;99.90;;;;;;5103893;27;20059;-71
2023/04/01 00:56:07;;;;;;;2.42;1.13;;;10.30;99.90;;;;;;5103318;27;20274;-73
2023/04/01 00:58:38;;;;;;;2.75;1.17;;;10.30;99.90;;;;;;5053063;28;20040;-73
2023/04/01 01:01:04;;;;;;;3.95;1.30;;;10.30;99.90;;;;;;5105536;27;20044;-73
2023/04/01 01:03:30;;;;;;;2.10;1.40;;;10.30;99.90;;;;;;5074838;28;20038;-74
2023/04/01 01:06:22;;;;;;;3.70;1.48;;;10.30;99.90;;;;;;5070211;28;20044;-74
2023/04/01 01:09:26;;;;;;;3.15;1.40;;;10.30;99.90;;;;;;5074920;28;20390;-74
2023/04/01 01:12:01;;;;;;;2.28;0.95;;;10.30;99.90;;;;;;5080655;28;20088;-74
2023/04/01 01:14:30;;;;;;;2.70;1.20;;;10.30;99.90;;;;;;5071121;28;20528;-74
2023/04/01 01:17:11;;;;;;;2.65;1.13;;;10.30;99.90;;;;;;5068936;28;20078;-73
2023/04/01 01:19:52;;;;;;;2.72;1.17;;;10.20;99.90;;;;;;5061937;28;20402;-73
2023/04/01 01:22:22;;;;;;;2.03;1.00;;;10.20;99.90;;;;;;5067291;28;20032;-73
2023/04/01 01:24:57;;;;;;;2.50;1.17;;;10.20;99.90;;;;;;5065591;28;20083;-73
2023/04/01 01:27:23;;;;;;;4.32;1.88;;;10.20;99.90;;;;;;5071884;28;20044;-73
2023/04/01 01:30:11;;;;;;;2.85;1.35;;;10.20;99.90;;;;;;5096400;28;20470;-73
2023/04/01 01:32:43;;;;;;;2.63;0.98;;;10.20;99.90;;;;;;5067924;28;20056;-74
2023/04/01 01:35:26;;;;;;;2.28;1.30;;;10.30;99.90;;;;;;5071527;28;20044;-73
2023/04/01 01:38:17;;;;;;;2.42;1.10;;;10.20;99.90;;;;;;5070526;28;20048;-73
2023/04/01 01:40:45;;;;;;;3.00;1.48;;;10.20;99.90;;;;;;5087944;28;20055;-73
2023/04/01 01:43:15;;;;;;;2.10;1.02;;;10.20;99.90;;;;;;5067523;28;20044;-73
2023/04/01 01:45:48;;;;;;;3.30;1.48;;;10.20;99.90;;;;;;5057544;28;20039;-73
2023/04/01 01:48:15;;;;;;;4.35;1.30;;;10.20;99.90;;;;;;5081399;28;20041;-73
2023/04/01 01:50:42;;;;;;;1.77;0.95;;;10.20;99.90;;;;;;5069487;28;20501;-73
2023/04/01 01:53:10;;;;;;;1.80;0.80;;;10.20;99.90;;;;;;5066010;28;20369;-73
2023/04/01 01:55:45;;;;;;;2.53;0.80;;;10.20;99.90;;;;;;5056369;28;20482;-73
2023/04/01 01:58:17;;;;;;;1.77;0.90;;;10.20;99.90;;;;;;5050057;28;20078;-73
2023/04/01 02:00:48;;;;;;;3.45;1.17;;;10.20;99.90;;;;;;5062364;28;20494;-73
2023/04/01 02:03:16;;;;;;;2.67;1.20;;;10.10;99.90;;;;;;5067209;28;20036;-73
2023/04/01 02:05:44;;;;;;;2.55;0.90;;;10.10;99.90;;;;;;5049739;28;20037;-73
2023/04/01 02:08:17;;;;;;;2.10;0.93;;;10.10;99.90;;;;;;5083775;28;20050;-73
2023/04/01 02:11:00;;;;;;;1.80;0.80;;;10.10;99.90;;;;;;5067041;28;20444;-73
2023/04/01 02:13:44;;;;;;;2.05;1.00;;;10.10;99.90;;;;;;5087346;28;20064;-73
2023/04/01 02:16:23;;;;;;;1.10;0.60;;;10.10;99.90;;;;;;5068809;28;20063;-73
2023/04/01 02:18:53;;;;;;;1.77;0.60;;;10.10;99.90;;;;;;5051497;28;20040;-73
2023/04/01 02:21:21;;;;;;;1.83;0.77;;;10.20;99.90;;;;;;5074943;28;20068;-73
2023/04/01 02:23:47;;;;;;;1.77;0.85;;;10.10;99.90;;;;;;5067971;28;20036;-73
2023/04/01 02:26:14;;;;;;;0.77;0.43;;;10.10;99.90;;;;;;5069369;28;20081;-74
2023/04/01 02:28:42;;;;;;;1.85;0.80;;;10.10;99.90;;;;;;5067721;28;20493;-73
2023/04/01 02:31:10;;;;;;;1.88;0.75;;;10.10;99.90;;;;;;5077016;28;20320;-73
2023/04/01 02:33:38;;;;;;;2.45;1.05;;;10.20;99.90;;;;;;5066695;28;20067;-73
2023/04/01 02:36:04;;;;;;;1.42;0.70;;;10.10;99.90;;;;;;5099392;27;20055;-73
2023/04/01 02:38:30;;;;;;;2.25;0.90;;;10.20;99.90;;;;;;5054399;28;20664;-73
2023/04/01 02:41:00;;;;;;;2.20;0.80;;;10.10;99.90;;;;;;5069399;28;20128;-73
2023/04/01 02:43:25;;;;;;;1.77;0.68;;;10.10;99.90;;;;;;5090637;28;20539;-73
2023/04/01 02:45:51;;;;;;;2.35;0.70;;;10.20;99.90;;;;;;5053813;28;20058;-73
2023/04/01 02:48:17;;;;;;;2.35;0.90;;;10.20;99.90;;;;;;5068059;28;20043;-73
2023/04/01 02:50:43;;;;;;;1.25;0.60;;;10.10;99.90;;;;;;5081113;28;20040;-73
2023/04/01 02:53:08;;;;;;;3.13;1.00;;;10.20;99.90;;;;;;5068016;28;20028;-73
2023/04/01 02:55:34;;;;;;;1.85;0.90;;;10.20;99.90;;;;;;5070889;28;20031;-73
2023/04/01 02:58:00;;;;;;;1.95;1.05;;;10.10;99.90;;;;;;5070959;28;20397;-73
2023/04/01 03:00:26;;;;;;;2.42;1.08;;;10.10;99.90;;;;;;5052843;28;20021;-73
2023/04/01 03:02:53;;;;;;;2.70;1.10;;;10.10;99.90;;;;;;5069995;28;20038;-73
2023/04/01 03:05:18;;;;;;;2.05;1.02;;;10.10;99.90;;;;;;5103018;28;20079;-73
2023/04/01 03:07:44;;;;;;;2.53;1.10;;;10.10;99.90;;;;;;5064496;28;20465;-73
2023/04/01 03:10:10;;;;;;;1.52;0.80;;;10.10;99.90;;;;;;5070471;28;20056;-73
2023/04/01 03:12:36;;;;;;;2.35;0.85;;;10.10;99.90;;;;;;5084179;28;20080;-73
2023/04/01 03:15:01;;;;;;;2.42;1.27;;;10.10;99.90;;;;;;5057307;28;20071;-73
2023/04/01 03:17:27;;;;;;;2.25;0.98;;;10.20;99.90;;;;;;5099332;28;20048;-73
2023/04/01 03:19:53;;;;;;;3.15;1.13;;;10.20;99.90;;;;;;5069148;28;20075;-73
2023/04/01 03:22:20;;;;;;;2.92;1.23;;;10.10;99.90;;;;;;5054305;28;20409;-73
2023/04/01 03:24:49;;;;;;;1.98;0.95;;;10.10;99.90;;;;;;5067012;28;20068;-73
2023/04/01 03:27:15;;;;;;;2.53;1.00;;;10.10;99.90;;;;;;5046921;28;20039;-73
2023/04/01 03:29:41;;;;;;;5.28;1.35;;;10.10;99.90;;;;;;5068303;28;20437;-73
2023/04/01 03:32:06;;;;;;;1.98;1.02;;;10.10;99.90;;;;;;5102404;28;20402;-73
2023/04/01 03:34:32;;;;;;;3.22;1.30;;;10.10;99.90;;;;;;5071528;28;20188;-73
2023/04/01 03:36:58;;;;;;;2.95;1.15;;;10.10;99.90;;;;;;5085308;28;20478;-73
2023/04/01 03:39:25;;;;;;;3.35;1.35;;;10.10;99.90;;;;;;5072137;28;20051;-73
2023/04/01 03:41:50;;;;;;;4.18;1.30;;;10.10;99.90;;;;;;5067780;28;20387;-73
2023/04/01 03:44:16;;;;;;;3.08;1.48;;;10.10;99.90;;;;;;5078708;28;20040;-73
2023/04/01 03:46:42;;;;;;;3.30;1.30;;;10.10;99.90;;;;;;5082679;28;20267;-73
2023/04/01 03:49:11;;;;;;;3.63;1.35;;;10.10;99.90;;;;;;5050152;28;20043;-73
2023/04/01 03:51:46;;;;;;;8.05;2.42;;;10.10;99.90;;;;;;5058233;28;20029;-73
2023/04/01 03:54:11;;;;;;;4.47;1.50;;;10.10;99.90;;;;;;5112266;27;20107;-73
2023/04/01 03:56:37;;;;;;;4.65;1.17;;;10.10;99.90;;;;;;5058979;28;20656;-73
2023/04/01 03:59:05;;;;;;;4.43;1.60;;;10.10;99.90;;;;;;5071759;28;20044;-73
2023/04/01 04:01:31;;;;;;;2.92;1.20;;;10.20;99.90;;;;;;5067499;28;20126;-73
2023/04/01 04:03:57;;;;;;;2.65;1.02;;;10.20;99.90;;;;;;5071527;28;20048;-73
2023/04/01 04:06:23;;;;;;;3.78;1.60;;;10.10;99.90;;;;;;5073714;28;20039;-73
2023/04/01 04:08:49;;;;;;;3.28;1.48;;;10.10;99.90;;;;;;5088312;28;20036;-73
2023/04/01 04:11:15;;;;;;;4.35;1.42;;;10.10;99.90;;;;;;5087661;28;20508;-73
2023/04/01 04:13:42;;;;;;;3.22;1.42;;;10.20;99.90;;;;;;5076707;28;20059;-73
2023/04/01 04:16:09;;;;;;;3.65;1.52;;;10.10;99.90;;;;;;5082993;28;20040;-73
2023/04/01 04:18:36;;;;;;;3.55;1.40;;;10.10;99.90;;;;;;5085579;28;20501;-73
2023/04/01 04:21:02;;;;;;;3.38;1.27;;;10.10;99.90;;;;;;5090268;28;20039;-73
2023/04/01 04:23:29;;;;;;;3.42;1.35;;;10.10;99.90;;;;;;5079722;28;20071;-73
2023/04/01 04:26:01;;;;;;;2.85;1.25;;;10.10;99.90;;;;;;5099997;28;20036;-73
2023/04/01 04:28:28;;;;;;;4.38;1.38;;;10.10;99.90;;;;;;5090438;28;20061;-73
2023/04/01 04:30:54;;;;;;;4.07;1.20;;;10.10;99.90;;;;;;5071983;28;20513;-73
2023/04/01 04:33:21;;;;;;;3.80;1.10;;;10.10;99.90;;;;;;5086622;28;20044;-73
2023/04/01 04:35:47;;;;;;;1.88;0.98;;;10.10;99.90;;;;;;5053621;28;20421;-73
2023/04/01 04:38:13;;;;;;;3.22;1.25;;;10.10;99.90;;;;;;5053843;28;20075;-73
2023/04/01 04:40:40;;;;;;;3.58;1.50;;;10.10;99.90;;;;;;5069987;28;20048;-73
2023/04/01 04:43:06;;;;;;;3.35;1.20;;;10.10;99.90;;;;;;5079445;28;20039;-73
2023/04/01 04:45:32;;;;;;;3.67;1.40;;;10.10;99.90;;;;;;5090379;28;20504;-73
2023/04/01 04:47:58;;;;;;;3.88;1.30;;;10.00;99.90;;;;;;5088403;28;20036;-73
2023/04/01 04:50:25;;;;;;;2.97;1.25;;;10.00;99.90;;;;;;5070413;28;20079;-74
2023/04/01 04:52:51;;;;;;;4.63;1.58;;;10.00;99.90;;;;;;5103713;28;20470;-74
2023/04/01 04:55:17;;;;;;;3.28;1.42;;;10.00;99.90;;;;;;5113587;27;20497;-73
2023/04/01 04:57:43;;;;;;;3.60;1.45;;;10.00;99.90;;;;;;5052572;28;20120;-73
2023/04/01 05:00:10;;;;;;;4.72;1.60;;;10.00;99.90;;;;;;5069102;28;20127;-73
2023/04/01 05:02:36;;;;;;;3.45;1.48;;;10.00;99.90;;;;;;5072213;28;20047;-74
2023/04/01 05:05:01;;;;;;;3.30;1.42;;;10.00;99.90;;;;;;5072473;28;20036;-73
2023/04/01 05:07:27;;;;;;;4.65;1.65;;;10.10;99.90;;;;;;5073713;28;20375;-73
2023/04/01 05:09:52;;;;;;;5.32;2.20;;;10.00;99.90;;;;;;5050152;28;20032;-73
2023/04/01 05:12:18;;;;;;;6.00;1.73;;;10.10;99.90;;;;;;5055041;28;20068;-73
2023/04/01 05:14:44;;;;;;;4.38;1.88;;;10.10;99.90;;;;;;5069461;28;20051;-73
2023/04/01 05:17:11;;;;;;;4.47;1.98;;;10.00;99.90;;;;;;5068622;28;20124;-73
2023/04/01 05:19:38;;;;;;;5.35;1.65;;;10.00;99.90;;;;;;5052992;28;20062;-73
2023/04/01 05:22:03;;;;;;;6.93;2.45;;;10.00;99.90;;;;;;5066697;28;20429;-73
2023/04/01 05:24:29;;;;;;;4.30;2.20;;;10.00;99.90;;;;;;5072160;28;20040;-73
2023/04/01 05:26:56;;;;;;;4.53;1.90;;;10.00;99.90;;;;;;5069366;28;20764;-73
2023/04/01 05:29:21;;;;;;;6.45;1.73;;;10.00;99.90;;;;;;5098603;27;20044;-73
2023/04/01 05:31:47;;;;;;;3.78;1.45;;;10.00;99.90;;;;;;5067434;28;20047;-73
2023/04/01 05:34:13;;;;;;;4.90;2.00;;;10.00;99.90;;;;;;5055556;28;20040;-73
2023/04/01 05:36:39;;;;;;;4.80;1.98;;;10.00;99.90;;;;;;5075617;28;20381;-73
2023/04/01 05:39:05;;;;;;;3.95;1.60;;;10.00;99.90;;;;;;5074200;28;20144;-74
2023/04/01 05:41:30;;;;;;;3.88;1.92;;;10.00;99.90;;;;;;5079722;28;20568;-74
2023/04/01 05:43:56;;;;;;;3.97;1.58;;;10.00;99.90;;;;;;5085479;28;20074;-74
2023/04/01 05:46:21;;;;;;;5.60;2.00;;;10.00;99.90;;;;;;5070916;28;20483;-73
2023/04/01 05:48:47;;;;;;;6.38;2.13;;;10.00;99.90;;;;;;5082805;28;20606;-73
2023/04/01 05:51:14;;;;;;;5.55;2.38;;;10.00;99.90;;;;;;5073527;28;20036;-73
2023/04/01 05:53:41;;;;;;;4.63;1.67;;;10.00;99.90;;;;;;5103799;27;20086;-73
2023/04/01 05:56:09;;;;;;;3.55;1.60;;;10.00;99.90;;;;;;5075986;28;20046;-74
2023/04/01 05:58:35;;;;;;;4.40;1.88;;;10.00;99.90;;;;;;5068750;28;20113;-73
2023/04/01 06:01:06;;;;;;;2.85;1.27;;;10.00;99.90;;;;;;5054204;28;20482;-73
2023/04/01 06:03:32;;;;;;;5.57;1.48;;;10.00;99.90;;;;;;5058015;28;20036;-73
2023/04/01 06:05:57;;;;;;;3.35;1.20;;;10.00;99.90;;;;;;5067894;28;20550;-73
2023/04/01 06:08:25;;;;;;;4.47;1.73;;;10.00;99.90;;;;;;5054094;28;20048;-74
2023/04/01 06:11:18;;;;;;;4.82;1.67;;;10.00;99.90;;;;;;5075405;28;20036;-73
2023/04/01 06:14:11;;;;;;;3.78;1.45;;;10.00;99.90;;;;;;5055521;28;20084;-73
2023/04/01 06:17:09;;;;;;;2.63;1.02;;;10.00;99.90;;;;;;5070628;28;20075;-73
2023/04/01 06:19:37;;;;;;;3.70;1.50;;;10.00;99.90;;;;;;5059348;28;20048;-73
2023/04/01 06:22:21;;;;;;;2.45;1.23;;;10.00;99.90;;;;;;5070231;28;20078;-73
2023/04/01 06:25:05;;;;;;;3.05;1.15;;;10.00;99.90;;;;;;5067036;28;20068;-73
2023/04/01 06:28:08;;;;;;;2.55;1.17;;;9.90;99.90;;;;;;5063124;28;20048;-73
2023/04/01 06:31:24;;;;;;;2.80;1.13;;;9.90;99.90;;;;;;5067950;28;20036;-73
2023/04/01 06:34:14;;;;;;;3.50;1.20;;;10.00;99.90;;;;;;4986746;28;21771;-73
2023/04/01 06:36:52;;;;;;;3.40;1.20;;;9.90;99.90;;;;;;5036235;28;20120;-75
2023/04/01 06:39:31;;;;;;;2.80;1.13;;;9.90;99.90;;;;;;5048918;28;20056;-73
2023/04/01 06:42:22;;;;;;;2.65;0.95;;;9.90;99.90;;;;;;5068745;28;20188;-74
2023/04/01 06:45:18;;;;;;;3.17;1.13;;;9.90;99.90;;;;;;5067757;28;20036;-73
2023/04/01 06:47:49;;;;;;;3.47;1.40;;;9.90;99.90;;;;;;5072986;28;20044;-73
2023/04/01 06:50:37;;;;;;;2.67;1.25;;;9.80;99.90;;;;;;5052624;28;20456;-73
2023/04/01 06:53:19;;;;;;;4.13;1.70;;;9.80;99.90;;;;;;5067177;28;21155;-72
2023/04/01 06:56:01;;;;;;;4.53;1.42;;;9.80;99.90;;;;;;5067627;28;20485;-73
2023/04/01 06:59:14;;;;;;;10.50;3.25;;;9.80;99.90;;;;;;5053428;28;20557;-73
2023/04/01 07:01:51;;;;;;;5.35;1.95;;;9.90;99.90;;;;;;5009372;28;20045;-74
2023/04/01 07:04:40;;;;;;;5.32;1.80;;;9.90;99.90;;;;;;5063037;28;20138;-74
2023/04/01 07:07:19;;;;;;;6.57;1.98;;;9.90;99.90;;;;;;5067976;28;20104;-74
2023/04/01 07:09:52;;;;;;;4.68;1.77;;;9.90;99.90;;;;;;5049799;28;20047;-73
2023/04/01 07:12:35;;;;;;;4.35;2.03;;;9.90;99.90;;;;;;5096735;27;20371;-73
2023/04/01 07:15:09;;;;;;;5.45;2.30;;;10.00;99.90;;;;;;5068847;28;20106;-73
2023/04/01 07:17:39;;;;;;;7.60;3.00;;;10.00;99.90;;;;;;5079407;28;20541;-74
2023/04/01 07:20:36;;;;;;;6.28;2.53;;;9.90;99.90;;;;;;5065644;28;20044;-73
2023/04/01 07:23:15;;;;;;;5.20;2.33;;;10.00;99.90;;;;;;5055568;28;20501;-73
2023/04/01 07:25:45;;;;;;;5.47;2.10;;;10.00;99.90;;;;;;5071706;28;20040;-73
2023/04/01 07:28:13;;;;;;;7.07;3.47;;;10.00;99.90;;;;;;5078028;28;20482;-74
2023/04/01 07:31:03;;;;;;;6.90;3.47;;;10.00;99.90;;;;;;5073438;28;20032;-73
2023/04/01 07:33:58;;;;;;;7.57;3.28;;;10.10;99.90;;;;;;5073245;28;20045;-74
2023/04/01 07:36:39;;;;;;;6.63;3.45;;;10.00;99.90;;;;;;5069388;28;20692;-73
2023/04/01 07:39:42;;;;;;;8.82;4.18;;;10.10;99.90;;;;;;5068548;28;20048;-76
2023/04/01 07:42:24;;;;;;;7.38;2.55;;;10.10;99.90;;;;;;5092134;28;20119;-74
2023/04/01 07:45:03;;;;;;;8.13;3.20;;;10.20;99.90;;;;;;5085315;27;20035;-73
2023/04/01 07:47:36;;;;;;;7.75;2.53;;;10.20;99.90;;;;;;5074896;28;20048;-73
2023/04/01 07:50:06;;;;;;;6.85;2.35;;;10.20;99.90;;;;;;5085594;28;20114;-73
2023/04/01 07:52:53;;;;;;;6.20;2.17;;;10.30;99.90;;;;;;5069752;28;20033;-73
2023/04/01 07:55:46;;;;;;;6.70;2.58;;;10.20;99.90;;;;;;5073678;28;20056;-73
2023/04/01 07:58:37;;;;;;;4.80;2.30;;;10.30;99.90;;;;;;5082570;28;20485;-73
2023/04/01 08:01:35;;;;;;;5.93;2.30;;;10.40;99.90;;;;;;5073778;28;20039;-73
2023/04/01 08:04:17;;;;;;;6.65;1.95;;;10.40;99.90;;;;;;5091011;28;20048;-73
2023/04/01 08:06:52;;;;;;;8.20;2.25;;;10.40;99.90;;;;;;5066914;28;20033;-73
2023/04/01 08:09:23;;;;;;;6.55;2.47;;;10.40;99.90;;;;;;5073968;28;20157;-73
2023/04/01 08:12:01;;;;;;;6.57;2.13;;;10.40;99.90;;;;;;5056695;28;20475;-73
2023/04/01 08:14:39;;;;;;;5.60;2.03;;;10.50;99.90;;;;;;5070428;28;20060;-73
2023/04/01 08:17:32;;;;;;;5.68;1.75;;;10.40;99.90;;;;;;5087319;28;20101;-73
2023/04/01 08:20:10;;;;;;;5.38;2.20;;;10.40;99.90;;;;;;5054017;28;20285;-73
2023/04/01 08:22:44;;;;;;;4.88;1.73;;;10.40;99.90;;;;;;5071773;28;20036;-73
2023/04/01 08:25:19;;;;;;;6.80;2.35;;;10.50;99.90;;;;;;5070424;28;20460;-73
2023/04/01 08:27:50;;;;;;;4.05;1.58;;;10.50;99.90;;;;;;5071095;28;20394;-73
2023/04/01 08:30:35;;;;;;;4.32;1.52;;;10.50;99.90;;;;;;5070252;28;20039;-73
2023/04/01 08:33:12;;;;;;;3.95;1.40;;;10.60;99.90;;;;;;5069436;28;20040;-73
2023/04/01 08:35:46;;;;;;;6.25;1.90;;;10.60;99.90;;;;;;5084132;28;20043;-73
2023/04/01 08:38:42;;;;;;;4.60;1.52;;;10.60;99.90;;;;;;5090721;28;20572;-73
2023/04/01 08:41:21;;;;;;;4.93;1.67;;;10.60;99.90;;;;;;5063391;28;20043;-78
2023/04/01 08:44:04;;;;;;;5.75;1.75;;;10.60;99.90;;;;;;5057288;28;20066;-72
2023/04/01 08:47:18;;;;;;;6.90;2.15;;;10.60;99.90;;;;;;5055636;28;20052;-73
2023/04/01 08:49:55;;;;;;;4.88;2.03;;;10.60;99.90;;;;;;5104496;27;20055;-73
2023/04/01 08:52:43;;;;;;;3.80;1.63;;;10.60;99.90;;;;;;5078471;28;20071;-73
2023/04/01 08:55:21;;;;;;;4.82;1.50;;;10.60;99.90;;;;;;5062228;28;20121;-73
2023/04/01 08:58:16;;;;;;;4.82;1.80;;;10.50;99.90;;;;;;5070661;28;20068;-73
2023/04/01 09:00:52;;;;;;;9.65;3.00;;;10.50;99.90;;;;;;5080331;28;20395;-73
2023/04/01 09:04:14;;;;;;;5.15;2.30;;;10.50;99.90;;;;;;5078138;28;20036;-73
2023/04/01 09:07:16;;;;;;;11.90;3.88;;;10.50;99.90;;;;;;5014949;28;20041;-73
2023/04/01 09:10:19;;;;;;;7.32;2.88;;;10.60;99.90;;;;;;5080359;28;20108;-73
2023/04/01 09:12:59;;;;;;;5.47;2.38;;;10.60;99.90;;;;;;5079484;28;20044;-73
2023/04/01 09:15:55;;;;;;;7.13;2.60;;;10.60;99.90;;;;;;5080719;28;20444;-73
2023/04/01 09:18:41;;;;;;;6.68;2.40;;;10.60;99.90;;;;;;5064265;28;20126;-72
2023/04/01 09:21:32;;;;;;;8.00;3.22;;;10.60;99.90;;;;;;5078547;28;20066;-73
2023/04/01 09:24:09;;;;;;;6.75;2.75;;;10.60;99.90;;;;;;5094830;28;20041;-75
2023/04/01 09:26:59;;;;;;;5.25;2.38;;;10.70;99.90;;;;;;5085307;28;20543;-73
2023/04/01 09:29:40;;;;;;;8.35;3.13;;;10.70;99.90;;;;;;5091355;28;20032;-73
2023/04/01 09:32:34;;;;;;;7.68;2.83;;;10.70;99.90;;;;;;5082755;28;20504;-73
2023/04/01 09:35:21;;;;;;;6.25;2.53;;;10.70;99.90;;;;;;5074237;28;20040;-73
2023/04/01 09:37:52;;;;;;;9.65;3.28;;;10.70;99.90;;;;;;5077365;28;20067;-71
2023/04/01 09:40:31;;;;;;;5.55;2.30;;;10.70;99.90;;;;;;5075944;28;20039;-73
2023/04/01 09:43:02;;;;;;;7.03;2.85;;;10.70;99.90;;;;;;5057043;28;20028;-72
2023/04/01 09:45:31;;;;;;;7.43;2.60;;;10.70;99.90;;;;;;5068617;28;20095;-73
2023/04/01 09:48:19;;;;;;;6.13;2.55;;;10.70;99.90;;;;;;5054271;28;20043;-73
2023/04/01 09:51:00;;;;;;;7.65;3.17;;;10.70;99.90;;;;;;5066232;28;20143;-73
2023/04/01 09:53:41;;;;;;;6.93;2.85;;;10.80;99.90;;;;;;5077051;28;20568;-73
2023/04/01 09:56:19;;;;;;;5.90;2.65;;;10.80;99.90;;;;;;5073509;28;20233;-73
2023/04/01 09:59:15;;;;;;;5.40;2.10;;;10.80;99.90;;;;;;5085198;28;20056;-73
2023/04/01 10:01:49;;;;;;;5.60;2.35;;;10.80;99.90;;;;;;5056251;28;20406;-73
2023/04/01 10:04:24;;;;;;;8.00;3.47;;;10.80;99.90;;;;;;5063892;28;20047;-73
2023/04/01 10:07:06;;;;;;;5.82;2.88;;;10.80;99.90;;;;;;5064747;28;20044;-73
2023/04/01 10:10:09;;;;;;;6.07;2.45;;;10.90;99.90;;;;;;5090369;28;20040;-73
2023/04/01 10:13:03;;;;;;;7.85;2.72;;;10.90;99.90;;;;;;5071268;28;20632;-73
2023/04/01 10:15:53;;;;;;;8.32;3.05;;;10.90;99.90;;;;;;5102549;27;20040;-73
2023/04/01 10:18:36;;;;;;;9.95;3.20;;;10.90;99.90;;;;;;5100825;27;20048;-72
2023/04/01 10:21:23;;;;;;;8.43;3.10;;;10.90;99.90;;;;;;5077014;28;20036;-73
2023/04/01 10:24:11;;;;;;;6.97;2.33;;;10.90;99.90;;;;;;5056167;28;20045;-73
2023/04/01 10:26:58;;;;;;;7.72;2.80;;;10.90;99.90;;;;;;5077728;28;20606;-73
2023/04/01 10:29:41;;;;;;;6.63;2.88;;;11.00;99.90;;;;;;5062725;28;20122;-73
2023/04/01 10:32:45;;;;;;;4.47;1.95;;;11.00;99.90;;;;;;5063478;28;20526;-73
2023/04/01 10:35:29;;;;;;;7.03;2.40;;;11.10;99.90;;;;;;5099131;27;20123;-73
2023/04/01 10:38:28;;;;;;;2.95;1.48;;;11.10;99.90;;;;;;5098849;27;20040;-73
2023/04/01 10:41:12;;;;;;;3.85;1.70;;;11.10;99.90;;;;;;5080206;28;20405;-73
2023/04/01 10:43:56;;;;;;;3.38;1.48;;;11.00;99.90;;;;;;5088185;28;20071;-73
2023/04/01 10:46:33;;;;;;;8.60;3.20;;;11.00;99.90;;;;;;5081774;28;20230;-73
2023/04/01 10:49:11;;;;;;;5.38;2.50;;;10.90;99.90;;;;;;5077167;28;20032;-73
2023/04/01 10:51:48;;;;;;;3.90;1.70;;;10.80;99.90;;;;;;5100969;27;20477;-73
2023/04/01 10:54:39;;;;;;;6.45;2.08;;;10.70;99.90;;;;;;5077285;28;20127;-73
2023/04/01 10:57:38;;;;;;;4.25;2.05;;;10.70;99.90;;;;;;5057920;28;20055;-73
2023/04/01 11:00:31;;;;;;;4.88;1.70;;;10.60;99.90;;;;;;5092665;28;20048;-73
2023/04/01 11:03:26;;;;;;;3.78;1.42;;;10.60;99.90;;;;;;5074939;28;20040;-73
2023/04/01 11:06:20;;;;;;;4.80;1.90;;;10.60;99.90;;;;;;5069552;28;20585;-72
2023/04/01 11:09:16;;;;;;;2.53;1.42;;;10.50;99.90;;;;;;5086859;28;20044;-72
2023/04/01 11:12:39;;;;;;;4.05;1.73;;;10.40;99.90;;;;;;5070805;28;20051;-72
2023/04/01 11:15:39;;;;;;;3.03;1.50;;;10.30;99.90;;;;;;5013678;28;20049;-73
2023/04/01 11:18:48;;;;;;;7.53;3.10;;;10.30;99.90;;;;;;5025130;28;20546;-73
2023/04/01 11:21:46;;;;;;;4.85;2.00;;;10.30;99.90;;;;;;5061776;28;20112;-73
2023/04/01 11:24:35;;;;;;;4.15;1.50;;;10.30;99.90;;;;;;5065132;28;20124;-72
2023/04/01 11:27:20;;;;;;;3.47;1.60;;;10.30;99.90;;;;;;5089720;28;20457;-72
2023/04/01 11:30:04;;;;;;;3.80;1.55;;;10.30;99.90;;;;;;5087471;28;20130;-72
2023/04/01 11:32:52;;;;;;;2.65;1.05;;;10.30;99.90;;;;;;5069745;28;20040;-72
2023/04/01 11:35:42;;;;;;;3.28;1.65;;;10.20;99.90;;;;;;5062102;28;20494;-72
2023/04/01 11:38:39;;;;;;;4.45;2.20;;;10.20;99.90;;;;;;5067572;28;20123;-72
2023/04/01 11:41:23;;;;;;;4.20;2.15;;;10.30;99.90;;;;;;5077196;28;20093;-72
2023/04/01 11:44:19;;;;;;;4.68;1.80;;;10.20;99.90;;;;;;5087395;28;20040;-72
2023/04/01 11:47:11;;;;;;;5.55;1.80;;;10.20;99.90;;;;;;5082826;28;20485;-72
2023/04/01 11:50:06;;;;;;;4.00;1.67;;;10.20;99.90;;;;;;5087409;28;20032;-72
2023/04/01 11:52:55;;;;;;;2.88;1.15;;;10.30;99.90;;;;;;5086727;28;20508;-72
2023/04/01 11:55:26;;;;;;;3.20;1.23;;;10.20;99.90;;;;;;5101311;28;20053;-72
2023/04/01 11:58:17;;;;;;;3.22;1.30;;;10.20;99.90;;;;;;5050978;28;20379;-72
2023/04/01 12:01:02;;;;;;;2.97;1.00;;;10.20;99.90;;;;;;5068378;28;20047;-72
2023/04/01 12:03:27;;;;;;;3.65;1.95;;;10.10;99.90;;;;;;5101485;28;20069;-72
2023/04/01 12:06:08;;;;;;;1.92;1.10;;;10.10;99.90;;;;;;5066246;28;20044;-72
2023/04/01 12:08:54;;;;;;;2.20;1.00;;;10.10;99.90;;;;;;5102436;28;20124;-72
2023/04/01 12:11:41;;;;;;;2.95;0.85;;;10.10;99.90;;;;;;5086146;28;20040;-72
2023/04/01 12:14:22;;;;;;;3.00;1.00;;;10.10;99.90;;;;;;5070668;28;20115;-72
2023/04/01 12:17:12;;;;;;;2.95;1.20;;;10.10;99.90;;;;;;5088344;28;20499;-72
2023/04/01 12:19:56;;;;;;;3.67;1.23;;;10.10;99.90;;;;;;5068547;28;20148;-72
2023/04/01 12:22:59;;;;;;;2.65;1.05;;;10.10;99.90;;;;;;5090159;28;20168;-72
2023/04/01 12:25:51;;;;;;;1.77;0.90;;;10.10;99.90;;;;;;5062248;28;20040;-72
2023/04/01 12:28:41;;;;;;;1.90;1.02;;;10.10;99.90;;;;;;5070535;28;20044;-72
2023/04/01 12:31:23;;;;;;;4.05;1.92;;;10.10;99.90;;;;;;5104467;28;20094;-72
2023/04/01 12:34:28;;;;;;;3.00;1.50;;;10.10;99.90;;;;;;5104572;28;20059;-72
2023/04/01 12:37:03;;;;;;;2.42;1.20;;;10.10;99.90;;;;;;5120904;27;20051;-72
2023/04/01 12:39:36;;;;;;;2.40;1.10;;;10.10;99.90;;;;;;5074236;28;20485;-72
2023/04/01 12:42:24;;;;;;;2.03;1.00;;;10.10;99.90;;;;;;5088062;28;20230;-72
2023/04/01 12:45:01;;;;;;;2.75;1.25;;;10.10;99.90;;;;;;5089496;28;20040;-72
2023/04/01 12:48:01;;;;;;;2.13;1.00;;;10.10;99.90;;;;;;5089884;28;20123;-72
2023/04/01 12:50:41;;;;;;;1.70;0.80;;;10.10;99.90;;;;;;5091130;28;20050;-72
2023/04/01 12:53:37;;;;;;;2.22;0.88;;;10.10;99.90;;;;;;5080587;28;20383;-72
2023/04/01 12:56:06;;;;;;;2.05;1.13;;;10.10;99.90;;;;;;5062654;28;20125;-72
2023/04/01 12:58:53;;;;;;;3.65;1.15;;;10.00;99.90;;;;;;5070354;28;20120;-71
2023/04/01 13:01:49;;;;;;;1.52;0.90;;;10.00;99.90;;;;;;5069598;28;20044;-72
2023/04/01 13:04:29;;;;;;;1.92;0.98;;;9.90;99.90;;;;;;5069404;28;20052;-72
2023/04/01 13:07:13;;;;;;;1.77;0.77;;;9.90;99.90;;;;;;5070052;28;20086;-72
2023/04/01 13:10:02;;;;;;;1.83;0.85;;;9.90;99.90;;;;;;5072227;28;20111;-71
2023/04/01 13:12:52;;;;;;;2.20;1.20;;;9.80;99.90;;;;;;5086990;28;20164;-72
2023/04/01 13:15:51;;;;;;;2.92;1.50;;;9.80;99.90;;;;;;5089866;28;20136;-72
2023/04/01 13:18:38;;;;;;;2.85;1.27;;;9.80;99.90;;;;;;5068022;28;20059;-72
2023/04/01 13:21:20;;;;;;;1.58;0.82;;;9.80;99.90;;;;;;5077060;28;20113;-72
2023/04/01 13:24:03;;;;;;;3.17;1.20;;;9.80;99.90;;;;;;5074588;28;20495;-71
2023/04/01 13:26:44;;;;;;;2.25;1.10;;;9.80;99.90;;;;;;5078609;28;20118;-72
2023/04/01 13:29:13;;;;;;;2.90;1.23;;;9.80;99.90;;;;;;5088707;27;20042;-72
2023/04/01 13:31:50;;;;;;;2.53;1.00;;;9.80;99.90;;;;;;5074510;28;20038;-72
2023/04/01 13:34:22;;;;;;;3.67;1.75;;;9.80;99.90;;;;;;5071326;28;20127;-72
2023/04/01 13:36:57;;;;;;;3.58;1.83;;;9.80;99.90;;;;;;5067253;28;20085;-72
2023/04/01 13:39:38;;;;;;;2.20;1.10;;;9.80;99.90;;;;;;5068808;28;20078;-72
2023/04/01 13:42:14;;;;;;;2.17;1.10;;;9.70;99.90;;;;;;5074471;28;20040;-72